createdAt,value
2023-05-09T00:00:24.239Z,55.00
2023-05-09T00:01:45.808Z,55.08
2023-05-09T00:02:47.282Z,55.01
2023-05-09T00:03:50.951Z,55.14
2023-05-09T00:04:52.491Z,55.10
2023-05-09T00:05:53.982Z,55.02
2023-05-09T00:06:55.566Z,55.04
2023-05-09T00:07:57.160Z,54.93
2023-05-09T00:08:58.913Z,54.82
2023-05-09T00:10:00.704Z,55.07
2023-05-09T00:11:02.201Z,54.67
2023-05-09T00:12:03.882Z,54.81
2023-05-09T00:13:05.363Z,54.86
2023-05-09T00:14:07.382Z,54.76
2023-05-09T00:15:09.570Z,54.81
2023-05-09T00:16:10.963Z,54.79
2023-05-09T00:17:13.989Z,54.66
2023-05-09T00:18:17.374Z,54.83
2023-05-09T00:19:18.934Z,54.93
2023-05-09T00:20:21.071Z,54.89
2023-05-09T00:21:22.503Z,54.70
2023-05-09T00:22:24.042Z,54.67
2023-05-09T00:23:25.465Z,54.71
2023-05-09T00:24:27.266Z,54.80
2023-05-09T00:25:28.653Z,54.56
2023-05-09T00:26:30.113Z,54.81
2023-05-09T00:27:31.720Z,54.83
2023-05-09T00:28:33.589Z,54.81
2023-05-09T00:29:35.508Z,54.70
2023-05-09T00:30:36.866Z,54.83
2023-05-09T00:31:38.317Z,54.52
2023-05-09T00:32:40.813Z,54.40
2023-05-09T00:33:42.293Z,54.56
2023-05-09T00:34:44.054Z,54.54
2023-05-09T00:35:45.668Z,54.52
2023-05-09T00:36:47.152Z,54.29
2023-05-09T00:37:48.698Z,54.32
2023-05-09T00:38:50.592Z,54.22
2023-05-09T00:39:52.604Z,54.23
2023-05-09T00:40:54.173Z,54.21
2023-05-09T00:41:56.359Z,54.25
2023-05-09T00:42:59.455Z,54.21
2023-05-09T00:44:00.914Z,54.21
2023-05-09T00:45:02.838Z,54.23
2023-05-09T00:46:04.562Z,54.46
2023-05-09T00:47:06.517Z,54.20
2023-05-09T00:48:08.390Z,54.17
2023-05-09T00:49:11.665Z,54.23
2023-05-09T00:50:13.273Z,54.36
2023-05-09T00:51:16.300Z,54.36
2023-05-09T00:52:22.541Z,54.25
2023-05-09T00:53:24.689Z,54.29
2023-05-09T00:54:26.277Z,54.26
2023-05-09T00:55:28.101Z,54.27
2023-05-09T00:56:30.550Z,54.18
2023-05-09T00:57:32.722Z,54.08
2023-05-09T00:58:34.299Z,54.08
2023-05-09T00:59:36.142Z,54.29
2023-05-09T01:00:38.103Z,54.19
2023-05-09T01:01:40.336Z,54.33
2023-05-09T01:02:44.245Z,54.33
2023-05-09T01:03:46.871Z,54.36
2023-05-09T01:04:48.682Z,54.35
2023-05-09T01:06:06.613Z,54.19
2023-05-09T01:07:15.211Z,54.41
2023-05-09T01:08:31.516Z,54.29
2023-05-09T01:09:50.125Z,54.26
2023-05-09T01:11:06.507Z,54.12
2023-05-09T01:12:17.298Z,54.24
2023-05-09T01:14:05.202Z,54.57
2023-05-09T01:15:26.849Z,54.50
2023-05-09T01:16:45.203Z,54.67
2023-05-09T01:18:15.646Z,54.56
2023-05-09T01:19:43.381Z,54.62
2023-05-09T01:20:56.537Z,54.80
2023-05-09T01:22:01.504Z,54.85
2023-05-09T01:23:15.295Z,54.86
2023-05-09T01:25:01.273Z,54.98
2023-05-09T01:26:05.162Z,55.23
2023-05-09T01:27:22.720Z,54.98
2023-05-09T01:29:00.882Z,55.18
2023-05-09T01:30:04.128Z,55.54
2023-05-09T01:31:29.380Z,55.04
2023-05-09T01:32:32.519Z,55.22
2023-05-09T01:33:40.198Z,55.13
2023-05-09T01:34:44.538Z,55.23
2023-05-09T01:35:51.895Z,55.25
2023-05-09T01:36:57.833Z,55.26
2023-05-09T01:38:01.695Z,55.46
2023-05-09T01:39:05.693Z,55.29
2023-05-09T01:40:13.005Z,55.37
2023-05-09T01:41:17.334Z,55.60
2023-05-09T01:42:20.728Z,55.52
2023-05-09T01:43:25.141Z,55.57
2023-05-09T01:44:32.114Z,55.60
2023-05-09T01:45:35.675Z,55.45
2023-05-09T01:46:38.517Z,55.63
2023-05-09T01:47:41.263Z,55.69
2023-05-09T01:48:44.889Z,55.63
2023-05-09T01:49:47.285Z,55.82
2023-05-09T01:50:48.708Z,55.63
2023-05-09T01:51:51.463Z,55.89
2023-05-09T01:52:55.782Z,56.03
2023-05-09T01:53:58.981Z,55.79
2023-05-09T01:55:01.868Z,56.11
2023-05-09T01:56:04.821Z,56.15
2023-05-09T01:57:07.659Z,56.19
2023-05-09T01:58:10.550Z,56.33
2023-05-09T01:59:15.646Z,56.43
2023-05-09T02:00:18.770Z,56.35
2023-05-09T02:01:21.283Z,56.47
2023-05-09T02:02:22.877Z,56.45
2023-05-09T02:03:25.429Z,56.70
2023-05-09T02:04:28.593Z,56.67
2023-05-09T02:05:32.375Z,56.89
2023-05-09T02:06:35.705Z,56.75
2023-05-09T02:07:40.549Z,56.76
2023-05-09T02:08:42.961Z,56.74
2023-05-09T02:09:45.721Z,56.83
2023-05-09T02:10:49.034Z,56.87
2023-05-09T02:11:50.588Z,56.94
2023-05-09T02:12:53.186Z,57.01
2023-05-09T02:13:54.686Z,57.11
2023-05-09T02:14:56.268Z,57.04
2023-05-09T02:15:58.837Z,57.07
2023-05-09T02:17:05.580Z,57.12
2023-05-09T02:18:07.113Z,57.14
2023-05-09T02:19:08.890Z,56.99
2023-05-09T02:20:11.322Z,57.16
2023-05-09T02:21:12.931Z,57.12
2023-05-09T02:22:15.171Z,57.16
2023-05-09T02:23:16.717Z,57.34
2023-05-09T02:24:18.240Z,57.29
2023-05-09T02:25:19.857Z,57.20
2023-05-09T02:26:22.053Z,57.57
2023-05-09T02:27:24.261Z,57.43
2023-05-09T02:28:28.000Z,57.55
2023-05-09T02:29:39.647Z,57.55
2023-05-09T02:30:46.756Z,57.74
2023-05-09T02:31:50.797Z,57.85
2023-05-09T02:33:00.475Z,58.00
2023-05-09T02:34:04.375Z,58.25
2023-05-09T02:35:09.649Z,58.12
2023-05-09T02:36:12.375Z,58.22
2023-05-09T02:37:15.392Z,58.43
2023-05-09T02:38:18.445Z,58.40
2023-05-09T02:39:19.988Z,58.46
2023-05-09T02:40:22.560Z,58.55
2023-05-09T02:41:27.969Z,58.76
2023-05-09T02:42:30.278Z,58.79
2023-05-09T02:43:31.872Z,58.81
2023-05-09T02:44:34.251Z,58.96
2023-05-09T02:45:35.849Z,58.97
2023-05-09T02:46:37.570Z,59.08
2023-05-09T02:47:39.140Z,59.01
2023-05-09T02:48:40.948Z,59.02
2023-05-09T02:49:42.452Z,59.18
2023-05-09T02:50:45.415Z,59.27
2023-05-09T02:51:47.227Z,59.32
2023-05-09T02:52:49.875Z,59.49
2023-05-09T02:53:51.319Z,59.64
2023-05-09T02:54:52.776Z,59.66
2023-05-09T02:55:54.351Z,59.48
2023-05-09T02:56:56.104Z,59.61
2023-05-09T02:58:12.044Z,59.75
2023-05-09T02:59:17.447Z,59.77
2023-05-09T03:00:20.956Z,59.87
2023-05-09T03:01:22.525Z,59.98
2023-05-09T03:02:24.163Z,60.10
2023-05-09T03:03:26.388Z,60.18
2023-05-09T03:04:27.970Z,60.22
2023-05-09T03:05:29.845Z,60.23
2023-05-09T03:06:31.341Z,60.41
2023-05-09T03:07:33.453Z,60.62
2023-05-09T03:08:35.206Z,60.67
2023-05-09T03:09:38.766Z,60.58
2023-05-09T03:10:42.158Z,60.53
2023-05-09T03:11:43.669Z,60.79
2023-05-09T03:12:45.357Z,60.86
2023-05-09T03:13:46.968Z,60.75
2023-05-09T03:14:48.399Z,60.86
2023-05-09T03:15:49.757Z,60.95
2023-05-09T03:16:51.449Z,61.02
2023-05-09T03:18:03.243Z,61.16
2023-05-09T03:19:04.833Z,61.26
2023-05-09T03:20:07.260Z,61.36
2023-05-09T03:21:08.907Z,61.39
2023-05-09T03:22:11.171Z,61.64
2023-05-09T03:23:16.194Z,61.52
2023-05-09T03:24:17.709Z,61.87
2023-05-09T03:25:19.312Z,61.71
2023-05-09T03:26:21.078Z,61.73
2023-05-09T03:27:23.667Z,61.78
2023-05-09T03:28:25.958Z,61.94
2023-05-09T03:29:27.735Z,61.95
2023-05-09T03:30:29.197Z,62.02
2023-05-09T03:31:31.342Z,62.02
2023-05-09T03:32:32.854Z,62.05
2023-05-09T03:33:34.328Z,62.00
2023-05-09T03:34:35.889Z,62.10
2023-05-09T03:35:37.994Z,62.09
2023-05-09T03:36:43.082Z,62.15
2023-05-09T03:37:46.047Z,62.20
2023-05-09T03:38:47.505Z,62.11
2023-05-09T03:39:49.623Z,62.31
2023-05-09T03:40:53.381Z,62.26
2023-05-09T03:41:55.604Z,62.33
2023-05-09T03:42:57.103Z,62.29
2023-05-09T03:43:58.546Z,62.36
2023-05-09T03:45:01.266Z,62.35
2023-05-09T03:46:03.840Z,62.49
2023-05-09T03:47:06.475Z,62.42
2023-05-09T03:48:12.060Z,62.56
2023-05-09T03:49:18.821Z,62.41
2023-05-09T03:50:20.730Z,62.59
2023-05-09T03:51:22.937Z,62.55
2023-05-09T03:52:25.051Z,62.46
2023-05-09T03:53:26.519Z,62.51
2023-05-09T03:54:31.885Z,62.59
2023-05-09T03:55:33.961Z,62.61
2023-05-09T03:56:36.304Z,62.43
2023-05-09T03:57:38.413Z,62.51
2023-05-09T03:58:41.095Z,62.75
2023-05-09T03:59:42.695Z,62.88
2023-05-09T04:00:44.711Z,62.99
2023-05-09T04:01:48.290Z,62.89
2023-05-09T04:02:50.342Z,62.96
2023-05-09T04:03:58.380Z,62.81
2023-05-09T04:05:00.961Z,62.60
2023-05-09T04:06:04.395Z,62.56
2023-05-09T04:07:09.728Z,62.69
2023-05-09T04:08:11.833Z,62.68
2023-05-09T04:09:14.164Z,62.70
2023-05-09T04:10:16.191Z,62.69
2023-05-09T04:11:17.950Z,62.56
2023-05-09T04:12:21.653Z,62.65
2023-05-09T04:13:23.236Z,62.52
2023-05-09T04:14:25.109Z,62.54
2023-05-09T04:15:26.894Z,62.57
2023-05-09T04:16:29.727Z,62.59
2023-05-09T04:17:31.354Z,62.55
2023-05-09T04:18:32.968Z,62.28
2023-05-09T04:19:34.782Z,62.30
2023-05-09T04:20:36.322Z,62.19
2023-05-09T04:21:37.733Z,62.05
2023-05-09T04:22:39.369Z,62.06
2023-05-09T04:23:42.941Z,62.12
2023-05-09T04:24:44.916Z,62.19
2023-05-09T04:25:46.694Z,62.10
2023-05-09T04:26:48.318Z,61.81
2023-05-09T04:27:53.845Z,61.67
2023-05-09T04:28:55.537Z,61.58
2023-05-09T04:29:57.912Z,61.51
2023-05-09T04:31:00.736Z,61.58
2023-05-09T04:32:04.702Z,61.62
2023-05-09T04:33:06.248Z,61.45
2023-05-09T04:34:08.027Z,61.60
2023-05-09T04:35:10.478Z,61.32
2023-05-09T04:36:17.026Z,61.26
2023-05-09T04:37:19.529Z,61.21
2023-05-09T04:38:21.359Z,61.24
2023-05-09T04:39:23.106Z,61.08
2023-05-09T04:40:31.121Z,61.06
2023-05-09T04:41:35.035Z,60.95
2023-05-09T04:42:36.820Z,61.15
2023-05-09T04:43:38.778Z,61.01
2023-05-09T04:44:40.644Z,60.89
2023-05-09T04:45:44.612Z,60.92
2023-05-09T04:46:46.731Z,60.55
2023-05-09T04:47:48.245Z,60.64
2023-05-09T04:48:49.824Z,60.63
2023-05-09T04:49:51.836Z,60.35
2023-05-09T04:50:53.216Z,60.52
2023-05-09T04:51:54.804Z,60.17
2023-05-09T04:52:56.316Z,60.21
2023-05-09T04:53:57.969Z,60.25
2023-05-09T04:55:03.849Z,60.36
2023-05-09T04:56:08.458Z,60.33
2023-05-09T04:57:17.801Z,60.09
2023-05-09T04:58:21.591Z,59.96
2023-05-09T04:59:23.259Z,59.86
2023-05-09T05:00:24.932Z,59.58
2023-05-09T05:01:26.510Z,59.82
2023-05-09T05:02:29.051Z,59.80
2023-05-09T05:03:31.364Z,59.52
2023-05-09T05:04:33.103Z,59.35
2023-05-09T05:05:37.132Z,59.45
2023-05-09T05:06:40.224Z,59.41
2023-05-09T05:07:43.635Z,59.15
2023-05-09T05:08:46.993Z,59.08
2023-05-09T05:09:48.555Z,58.84
2023-05-09T05:10:50.698Z,58.75
2023-05-09T05:12:00.746Z,58.69
2023-05-09T05:13:04.432Z,58.56
2023-05-09T05:14:06.236Z,58.62
2023-05-09T05:15:08.653Z,58.32
2023-05-09T05:16:10.272Z,58.51
2023-05-09T05:17:11.889Z,58.56
2023-05-09T05:18:14.177Z,58.22
2023-05-09T05:19:15.785Z,58.19
2023-05-09T05:20:17.646Z,58.09
2023-05-09T05:21:20.089Z,58.00
2023-05-09T05:22:22.364Z,57.91
2023-05-09T05:23:23.980Z,57.63
2023-05-09T05:24:27.549Z,57.61
2023-05-09T05:25:30.699Z,57.57
2023-05-09T05:26:32.589Z,57.28
2023-05-09T05:27:34.354Z,57.18
2023-05-09T05:28:35.974Z,57.01
2023-05-09T05:29:37.589Z,56.62
2023-05-09T05:30:40.352Z,56.52
2023-05-09T05:31:41.973Z,56.32
2023-05-09T05:32:43.863Z,56.33
2023-05-09T05:33:45.548Z,56.10
2023-05-09T05:34:47.314Z,56.19
2023-05-09T05:35:49.196Z,56.05
2023-05-09T05:36:50.788Z,55.89
2023-05-09T05:37:52.476Z,55.82
2023-05-09T05:38:54.031Z,55.73
2023-05-09T05:39:55.599Z,55.41
2023-05-09T05:40:58.794Z,55.32
2023-05-09T05:42:00.649Z,55.37
2023-05-09T05:43:02.177Z,55.39
2023-05-09T05:44:04.979Z,55.13
2023-05-09T05:45:08.076Z,54.74
2023-05-09T05:46:12.612Z,54.81
2023-05-09T05:47:14.205Z,54.52
2023-05-09T05:48:16.621Z,54.51
2023-05-09T05:49:18.136Z,54.63
2023-05-09T05:50:19.753Z,54.26
2023-05-09T05:51:21.521Z,54.31
2023-05-09T05:52:23.115Z,54.36
2023-05-09T05:53:24.793Z,54.15
2023-05-09T05:54:26.665Z,53.89
2023-05-09T05:55:28.928Z,53.59
2023-05-09T05:56:31.706Z,53.18
2023-05-09T05:57:37.048Z,53.46
2023-05-09T05:58:39.651Z,53.61
2023-05-09T05:59:41.479Z,53.16
2023-05-09T06:00:43.289Z,52.98
2023-05-09T06:01:44.796Z,52.95
2023-05-09T06:02:47.318Z,52.97
2023-05-09T06:03:55.324Z,52.46
2023-05-09T06:04:58.940Z,52.28
2023-05-09T06:06:00.775Z,52.36
2023-05-09T06:07:02.227Z,52.53
2023-05-09T06:08:04.031Z,52.16
2023-05-09T06:09:07.090Z,52.11
2023-05-09T06:10:10.738Z,51.88
2023-05-09T06:11:12.512Z,51.86
2023-05-09T06:12:16.391Z,51.85
2023-05-09T06:13:18.106Z,51.81
2023-05-09T06:14:23.245Z,51.68
2023-05-09T06:15:25.425Z,51.56
2023-05-09T06:16:27.319Z,51.59
2023-05-09T06:17:28.851Z,51.11
2023-05-09T06:18:30.734Z,51.27
2023-05-09T06:19:32.208Z,50.70
2023-05-09T06:20:35.493Z,50.79
2023-05-09T06:21:37.083Z,50.72
2023-05-09T06:22:38.834Z,50.94
2023-05-09T06:23:47.241Z,50.71
2023-05-09T06:24:52.808Z,50.72
2023-05-09T06:25:54.267Z,50.75
2023-05-09T06:26:55.987Z,50.28
2023-05-09T06:27:57.456Z,49.98
2023-05-09T06:28:59.109Z,50.32
2023-05-09T06:30:02.687Z,50.20
2023-05-09T06:31:07.570Z,50.40
2023-05-09T06:32:09.056Z,50.14
2023-05-09T06:33:10.674Z,50.42
2023-05-09T06:34:12.114Z,50.19
2023-05-09T06:35:15.218Z,49.99
2023-05-09T06:36:17.202Z,49.89
2023-05-09T06:37:18.848Z,49.80
2023-05-09T06:38:20.339Z,49.56
2023-05-09T06:39:21.924Z,49.53
2023-05-09T06:40:23.354Z,49.66
2023-05-09T06:41:25.601Z,49.49
2023-05-09T06:42:27.974Z,49.34
2023-05-09T06:43:29.412Z,49.13
2023-05-09T06:44:32.079Z,49.50
2023-05-09T06:45:33.652Z,49.29
2023-05-09T06:46:35.166Z,48.49
2023-05-09T06:47:36.733Z,48.67
2023-05-09T06:48:38.181Z,48.58
2023-05-09T06:49:39.871Z,48.33
2023-05-09T06:50:41.289Z,48.09
2023-05-09T06:51:42.905Z,47.64
2023-05-09T06:52:44.502Z,47.84
2023-05-09T06:53:45.924Z,48.05
2023-05-09T06:54:47.476Z,48.22
2023-05-09T06:55:48.936Z,48.43
2023-05-09T06:56:50.404Z,48.06
2023-05-09T06:57:52.145Z,47.87
2023-05-09T06:58:53.791Z,47.86
2023-05-09T06:59:55.180Z,47.77
2023-05-09T07:00:56.712Z,47.68
2023-05-09T07:01:58.346Z,47.50
2023-05-09T07:03:00.455Z,47.32
2023-05-09T07:04:01.899Z,47.65
2023-05-09T07:05:03.666Z,47.57
2023-05-09T07:06:05.241Z,48.12
2023-05-09T07:07:07.076Z,47.81
2023-05-09T07:08:08.523Z,47.52
2023-05-09T07:09:10.423Z,46.88
2023-05-09T07:10:12.643Z,47.01
2023-05-09T07:11:15.684Z,47.03
2023-05-09T07:12:17.336Z,46.89
2023-05-09T07:13:19.045Z,46.57
2023-05-09T07:14:20.663Z,46.43
2023-05-09T07:15:36.850Z,46.38
2023-05-09T07:16:42.605Z,46.17
2023-05-09T07:17:44.342Z,46.23
2023-05-09T07:18:45.823Z,46.19
2023-05-09T07:19:47.204Z,45.69
2023-05-09T07:20:48.709Z,45.83
2023-05-09T07:21:50.219Z,45.29
2023-05-09T07:22:51.905Z,44.71
2023-05-09T07:23:53.607Z,45.07
2023-05-09T07:24:55.092Z,45.22
2023-05-09T07:25:57.997Z,45.15
2023-05-09T07:27:03.073Z,44.64
2023-05-09T07:28:05.250Z,44.58
2023-05-09T07:29:06.669Z,44.46
2023-05-09T07:30:08.667Z,44.41
2023-05-09T07:31:10.084Z,44.47
2023-05-09T07:32:11.510Z,44.73
2023-05-09T07:33:13.013Z,44.72
2023-05-09T07:34:16.142Z,44.26
2023-05-09T07:35:18.695Z,43.74
2023-05-09T07:36:20.458Z,43.44
2023-05-09T07:37:21.919Z,43.52
2023-05-09T07:38:23.380Z,43.57
2023-05-09T07:39:25.110Z,43.15
2023-05-09T07:40:26.574Z,42.60
2023-05-09T07:41:28.002Z,42.47
2023-05-09T07:42:31.988Z,42.59
2023-05-09T07:43:33.723Z,42.23
2023-05-09T07:44:35.192Z,42.52
2023-05-09T07:45:36.663Z,42.55
2023-05-09T07:46:40.317Z,42.26
2023-05-09T07:47:41.746Z,42.00
2023-05-09T07:48:43.582Z,42.21
2023-05-09T07:49:46.063Z,41.87
2023-05-09T07:50:47.467Z,42.04
2023-05-09T07:51:48.821Z,42.06
2023-05-09T07:52:51.297Z,41.98
2023-05-09T07:53:54.734Z,42.18
2023-05-09T07:54:56.597Z,42.06
2023-05-09T07:55:58.320Z,42.13
2023-05-09T07:56:59.761Z,41.50
2023-05-09T07:58:01.203Z,41.95
2023-05-09T07:59:02.771Z,41.99
2023-05-09T08:00:05.866Z,42.22
2023-05-09T08:01:14.968Z,41.75
2023-05-09T08:02:16.449Z,40.95
2023-05-09T08:03:20.152Z,41.09
2023-05-09T08:04:21.712Z,40.85
2023-05-09T08:05:23.166Z,40.96
2023-05-09T08:06:25.528Z,40.80
2023-05-09T08:07:26.920Z,41.07
2023-05-09T08:08:28.460Z,40.66
2023-05-09T08:09:29.914Z,41.09
2023-05-09T08:10:32.890Z,40.90
2023-05-09T08:11:35.312Z,41.05
2023-05-09T08:12:36.820Z,41.07
2023-05-09T08:13:38.216Z,40.98
2023-05-09T08:14:40.235Z,40.64
2023-05-09T08:15:41.724Z,40.82
2023-05-09T08:16:43.340Z,40.71
2023-05-09T08:17:44.896Z,40.53
2023-05-09T08:18:46.436Z,40.54
2023-05-09T08:19:48.134Z,40.53
2023-05-09T08:20:50.333Z,40.71
2023-05-09T08:21:52.688Z,40.42
2023-05-09T08:22:54.150Z,40.45
2023-05-09T08:23:56.309Z,40.47
2023-05-09T08:24:57.808Z,40.12
2023-05-09T08:26:00.436Z,39.36
2023-05-09T08:27:02.080Z,39.51
2023-05-09T08:28:03.848Z,39.73
2023-05-09T08:29:05.293Z,39.61
2023-05-09T08:30:07.495Z,39.64
2023-05-09T08:31:09.076Z,39.08
2023-05-09T08:32:10.586Z,39.32
2023-05-09T08:33:12.692Z,39.45
2023-05-09T08:34:14.113Z,39.51
2023-05-09T08:35:16.512Z,37.76
2023-05-09T08:36:18.520Z,38.70
2023-05-09T08:37:19.954Z,38.55
2023-05-09T08:38:21.722Z,38.75
2023-05-09T08:39:23.113Z,37.27
2023-05-09T08:40:24.777Z,36.86
2023-05-09T08:41:27.398Z,37.73
2023-05-09T08:42:31.477Z,38.11
2023-05-09T08:43:33.839Z,38.40
2023-05-09T08:44:35.318Z,37.64
2023-05-09T08:45:59.871Z,37.48
2023-05-09T08:47:03.367Z,37.63
2023-05-09T08:48:06.252Z,37.07
2023-05-09T08:49:08.590Z,37.26
2023-05-09T08:50:11.147Z,37.06
2023-05-09T08:51:15.578Z,37.37
2023-05-09T08:52:18.093Z,36.91
2023-05-09T08:53:21.068Z,36.72
2023-05-09T08:54:23.953Z,36.69
2023-05-09T08:55:26.440Z,36.46
2023-05-09T08:56:30.537Z,36.84
2023-05-09T08:57:36.905Z,36.74
2023-05-09T08:58:38.456Z,36.07
2023-05-09T08:59:41.646Z,35.93
2023-05-09T09:00:44.071Z,35.71
2023-05-09T09:01:46.073Z,36.10
2023-05-09T09:02:48.218Z,36.11
2023-05-09T09:03:50.216Z,35.44
2023-05-09T09:04:53.653Z,34.22
2023-05-09T09:05:55.994Z,32.65
2023-05-09T09:06:58.880Z,33.75
2023-05-09T09:08:01.195Z,33.70
2023-05-09T09:09:05.598Z,34.04
2023-05-09T09:10:10.188Z,34.29
2023-05-09T09:11:13.177Z,34.64
2023-05-09T09:12:16.339Z,34.81
2023-05-09T09:13:18.057Z,34.96
2023-05-09T09:14:26.975Z,34.82
2023-05-09T09:15:36.494Z,35.15
2023-05-09T09:16:38.961Z,35.01
2023-05-09T09:17:43.464Z,34.83
2023-05-09T09:18:45.642Z,34.49
2023-05-09T09:19:49.869Z,33.86
2023-05-09T09:20:57.078Z,34.14
2023-05-09T09:22:01.838Z,34.06
2023-05-09T09:23:10.081Z,33.90
2023-05-09T09:24:12.939Z,33.70
2023-05-09T09:25:14.330Z,33.45
2023-05-09T09:26:16.137Z,33.90
2023-05-09T09:27:18.107Z,33.36
2023-05-09T09:28:20.568Z,33.41
2023-05-09T09:29:22.520Z,33.05
2023-05-09T09:30:24.876Z,33.30
2023-05-09T09:31:31.734Z,33.14
2023-05-09T09:32:34.119Z,33.15
2023-05-09T09:33:35.869Z,32.81
2023-05-09T09:34:37.516Z,33.51
2023-05-09T09:35:39.718Z,33.71
2023-05-09T09:36:41.422Z,33.10
2023-05-09T09:37:43.151Z,33.16
2023-05-09T09:38:44.792Z,33.61
2023-05-09T09:39:54.549Z,33.96
2023-05-09T09:40:57.916Z,33.99
2023-05-09T09:42:11.092Z,33.85
2023-05-09T09:43:12.467Z,33.33
2023-05-09T09:44:19.634Z,33.45
2023-05-09T09:45:21.191Z,33.03
2023-05-09T09:46:22.771Z,33.68
2023-05-09T09:47:31.458Z,34.05
2023-05-09T09:48:34.814Z,34.07
2023-05-09T09:49:36.329Z,34.30
2023-05-09T09:50:37.774Z,33.79
2023-05-09T09:51:40.276Z,34.10
2023-05-09T09:52:55.526Z,34.24
2023-05-09T09:53:56.905Z,34.07
2023-05-09T09:54:59.522Z,34.31
2023-05-09T09:56:00.960Z,34.40
2023-05-09T09:57:02.522Z,34.41
2023-05-09T09:58:17.080Z,33.82
2023-05-09T09:59:22.804Z,33.19
2023-05-09T10:00:30.153Z,33.26
2023-05-09T10:01:31.765Z,33.09
2023-05-09T10:02:33.459Z,33.54
2023-05-09T10:03:45.647Z,33.51
2023-05-09T10:04:47.432Z,33.91
2023-05-09T10:06:00.768Z,33.92
2023-05-09T10:07:11.529Z,33.77
2023-05-09T10:08:15.801Z,33.93
2023-05-09T10:09:17.633Z,34.26
2023-05-09T10:10:19.721Z,34.18
2023-05-09T10:11:21.921Z,34.51
2023-05-09T10:12:23.432Z,34.53
2023-05-09T10:13:26.291Z,34.64
2023-05-09T10:14:31.244Z,35.13
2023-05-09T10:15:49.049Z,34.69
2023-05-09T10:16:57.002Z,34.64
2023-05-09T10:18:03.620Z,34.58
2023-05-09T10:19:06.070Z,34.70
2023-05-09T10:20:09.657Z,34.77
2023-05-09T10:21:15.190Z,34.47
2023-05-09T10:22:18.564Z,34.55
2023-05-09T10:23:20.663Z,34.63
2023-05-09T10:24:29.170Z,34.79
2023-05-09T10:25:43.842Z,34.61
2023-05-09T10:26:51.430Z,33.43
2023-05-09T10:28:01.571Z,33.24
2023-05-09T10:29:09.312Z,33.05
2023-05-09T10:30:34.119Z,33.13
2023-05-09T10:31:38.754Z,32.77
2023-05-09T10:32:48.833Z,33.27
2023-05-09T10:33:51.748Z,33.84
2023-05-09T10:35:01.653Z,34.16
2023-05-09T10:36:04.461Z,34.18
2023-05-09T10:37:07.909Z,34.24
2023-05-09T10:38:11.798Z,34.07
2023-05-09T10:39:14.326Z,34.54
2023-05-09T10:40:19.391Z,34.17
2023-05-09T10:41:21.533Z,34.13
2023-05-09T10:42:27.913Z,33.98
2023-05-09T10:43:31.630Z,34.03
2023-05-09T10:44:34.597Z,33.61
2023-05-09T10:45:36.333Z,33.36
2023-05-09T10:46:38.777Z,33.22
2023-05-09T10:47:41.840Z,33.27
2023-05-09T10:48:44.205Z,33.28
2023-05-09T10:49:46.552Z,33.10
2023-05-09T10:50:48.566Z,33.23
2023-05-09T10:51:53.234Z,32.69
2023-05-09T10:53:13.263Z,32.83
2023-05-09T10:54:29.300Z,32.49
2023-05-09T10:55:59.685Z,32.18
2023-05-09T10:57:01.265Z,32.33
2023-05-09T10:58:26.198Z,31.24
2023-05-09T10:59:37.237Z,31.58
2023-05-09T11:00:41.755Z,31.70
2023-05-09T11:01:43.242Z,32.13
2023-05-09T11:03:07.934Z,32.14
2023-05-09T11:04:15.903Z,32.34
2023-05-09T11:05:19.782Z,32.29
2023-05-09T11:06:43.863Z,31.79
2023-05-09T11:07:45.428Z,32.17
2023-05-09T11:08:47.116Z,31.57
2023-05-09T11:09:51.532Z,32.02
2023-05-09T11:11:00.302Z,31.78
2023-05-09T11:12:04.706Z,31.38
2023-05-09T11:13:06.958Z,31.47
2023-05-09T11:14:08.377Z,31.77
2023-05-09T11:15:10.803Z,31.61
2023-05-09T11:16:12.324Z,31.91
2023-05-09T11:17:35.102Z,31.86
2023-05-09T11:18:51.657Z,31.06
2023-05-09T11:19:53.152Z,31.18
2023-05-09T11:20:55.614Z,31.40
2023-05-09T11:22:25.613Z,31.24
2023-05-09T11:23:30.658Z,31.01
2023-05-09T11:24:32.597Z,30.88
2023-05-09T11:25:34.057Z,30.33
2023-05-09T11:26:37.971Z,29.88
2023-05-09T11:27:47.981Z,30.28
2023-05-09T11:28:53.351Z,30.44
2023-05-09T11:29:58.877Z,30.39
2023-05-09T11:31:16.487Z,30.51
2023-05-09T11:32:19.358Z,29.59
2023-05-09T11:33:29.463Z,29.53
2023-05-09T11:34:30.913Z,30.18
2023-05-09T11:35:36.157Z,28.55
2023-05-09T11:36:47.011Z,29.20
2023-05-09T11:37:59.358Z,29.35
2023-05-09T11:39:02.402Z,29.39
2023-05-09T11:40:04.256Z,29.33
2023-05-09T11:41:06.305Z,29.43
2023-05-09T11:42:08.428Z,29.31
2023-05-09T11:43:10.004Z,28.83
2023-05-09T11:44:16.292Z,29.01
2023-05-09T11:45:18.114Z,28.71
2023-05-09T11:46:19.884Z,28.67
2023-05-09T11:47:21.462Z,28.06
2023-05-09T11:48:23.911Z,28.42
2023-05-09T11:49:27.576Z,27.84
2023-05-09T11:50:29.227Z,27.47
2023-05-09T11:51:31.681Z,27.59
2023-05-09T11:52:33.909Z,27.66
2023-05-09T11:53:44.714Z,26.91
2023-05-09T11:54:46.113Z,27.40
2023-05-09T11:55:47.956Z,26.46
2023-05-09T11:56:49.383Z,27.08
2023-05-09T11:57:53.054Z,25.96
2023-05-09T11:58:54.779Z,26.53
2023-05-09T11:59:56.752Z,25.41
2023-05-09T12:00:59.854Z,26.17
2023-05-09T12:02:06.168Z,25.84
2023-05-09T12:03:07.800Z,25.85
2023-05-09T12:04:09.557Z,26.21
2023-05-09T12:05:14.176Z,25.80
2023-05-09T12:06:17.659Z,26.00
2023-05-09T12:07:20.000Z,26.01
2023-05-09T12:08:23.885Z,25.97
2023-05-09T12:09:31.012Z,25.82
2023-05-09T12:10:37.206Z,25.71
2023-05-09T12:11:39.072Z,25.40
2023-05-09T12:12:49.176Z,23.99
2023-05-09T12:13:52.071Z,24.92
2023-05-09T12:14:54.043Z,24.07
2023-05-09T12:16:01.904Z,24.33
2023-05-09T12:17:03.757Z,24.67
2023-05-09T12:18:07.898Z,23.77
2023-05-09T12:19:09.545Z,23.16
2023-05-09T12:20:12.045Z,23.63
2023-05-09T12:21:13.699Z,23.49
2023-05-09T12:22:15.433Z,23.27
2023-05-09T12:23:17.769Z,23.63
2023-05-09T12:24:22.408Z,23.39
2023-05-09T12:25:23.946Z,23.71
2023-05-09T12:26:26.398Z,23.97
2023-05-09T12:27:29.146Z,23.81
2023-05-09T12:28:31.016Z,23.03
2023-05-09T12:29:32.672Z,22.37
2023-05-09T12:30:34.191Z,22.79
2023-05-09T12:31:36.624Z,22.50
2023-05-09T12:32:39.742Z,22.82
2023-05-09T12:33:41.800Z,22.18
2023-05-09T12:34:45.037Z,22.09
2023-05-09T12:35:47.819Z,21.86
2023-05-09T12:36:52.822Z,21.55
2023-05-09T12:37:57.059Z,21.62
2023-05-09T12:38:58.924Z,21.73
2023-05-09T12:40:01.414Z,21.68
2023-05-09T12:41:18.777Z,20.66
2023-05-09T12:42:27.488Z,19.65
2023-05-09T12:43:30.662Z,20.87
2023-05-09T12:44:32.360Z,19.87
2023-05-09T12:45:33.784Z,20.14
2023-05-09T12:46:36.890Z,19.74
2023-05-09T12:47:41.036Z,19.28
2023-05-09T12:48:43.388Z,18.63
2023-05-09T12:49:48.653Z,18.84
2023-05-09T12:50:51.301Z,18.89
2023-05-09T12:51:54.422Z,19.10
2023-05-09T12:53:02.689Z,19.57
2023-05-09T12:54:10.314Z,18.58
2023-05-09T12:55:13.423Z,18.94
2023-05-09T12:56:20.143Z,18.81
2023-05-09T12:57:23.303Z,18.05
2023-05-09T12:58:30.389Z,18.36
2023-05-09T12:59:32.685Z,18.96
2023-05-09T13:00:42.612Z,19.10
2023-05-09T13:01:43.964Z,18.90
2023-05-09T13:02:45.585Z,17.97
2023-05-09T13:04:01.534Z,18.05
2023-05-09T13:05:14.486Z,18.80
2023-05-09T13:06:16.340Z,18.73
2023-05-09T13:07:17.785Z,18.98
2023-05-09T13:08:20.959Z,19.09
2023-05-09T13:09:24.267Z,18.99
2023-05-09T13:10:28.431Z,18.55
2023-05-09T13:11:30.127Z,18.67
2023-05-09T13:12:31.616Z,18.30
2023-05-09T13:13:33.326Z,18.45
2023-05-09T13:14:34.866Z,17.99
2023-05-09T13:15:36.578Z,18.23
2023-05-09T13:16:38.871Z,18.06
2023-05-09T13:17:40.467Z,18.19
2023-05-09T13:18:42.301Z,18.02
2023-05-09T13:19:43.790Z,18.04
2023-05-09T13:20:45.362Z,17.84
2023-05-09T13:21:47.281Z,17.57
2023-05-09T13:22:49.591Z,17.22
2023-05-09T13:23:51.597Z,17.84
2023-05-09T13:24:52.981Z,17.63
2023-05-09T13:25:54.370Z,17.28
2023-05-09T13:26:56.115Z,17.22
2023-05-09T13:27:57.535Z,16.63
2023-05-09T13:28:59.043Z,16.57
2023-05-09T13:30:00.637Z,16.08
2023-05-09T13:31:03.628Z,16.28
2023-05-09T13:32:05.394Z,16.36
2023-05-09T13:33:23.921Z,16.23
2023-05-09T13:34:27.252Z,15.52
2023-05-09T13:35:29.144Z,15.82
2023-05-09T13:36:31.913Z,15.83
2023-05-09T13:37:34.462Z,16.05
2023-05-09T13:38:39.597Z,15.73
2023-05-09T13:39:41.266Z,16.13
2023-05-09T13:40:42.689Z,16.32
2023-05-09T13:41:44.142Z,16.42